Time;durP1;ratioP1;P1;durP2;ratioP2;P2;SDS_P1;SDS_P2;PMS_P1;PMS_P2;Temp;Humidity;BMP_temperature;BMP_pressure;BME280_temperature;BME280_humidity;BME280_pressure;Samples;Min_cycle;Max_cycle;Signal;HPM_P1;HPM_P2
2021/06/15 00:00:28;;;;;;;2.88;2.15;;;;;24.50;101879.00;;;;5096964;28;20205;-77
2021/06/15 00:02:55;;;;;;;3.15;2.33;;;;;24.50;101874.00;;;;5110344;28;20209;-77
2021/06/15 00:05:22;;;;;;;2.72;2.35;;;;;24.40;101878.00;;;;5110814;28;20205;-77
2021/06/15 00:07:50;;;;;;;4.35;2.05;;;;;24.40;101875.00;;;;5098055;28;20687;-77
2021/06/15 00:10:19;;;;;;;2.70;2.05;;;;;24.40;101873.00;;;;5090216;28;20204;-77
2021/06/15 00:12:46;;;;;;;5.55;2.28;;;;;24.30;101873.00;;;;5108396;28;20225;-77
2021/06/15 00:15:16;;;;;;;3.80;2.20;;;;;24.30;101883.00;;;;5109997;28;20655;-77
2021/06/15 00:17:43;;;;;;;4.55;2.15;;;;;24.30;101886.00;;;;5109567;28;20201;-77
2021/06/15 00:20:12;;;;;;;3.95;2.15;;;;;24.30;101893.00;;;;5110732;28;20198;-78
2021/06/15 00:22:39;;;;;;;4.40;2.38;;;;;24.30;101891.00;;;;5096750;28;20213;-77
2021/06/15 00:25:08;;;;;;;2.63;2.25;;;;;24.20;101891.00;;;;5110525;28;20690;-78
2021/06/15 00:27:35;;;;;;;2.05;1.65;;;;;24.20;101892.00;;;;5109595;28;20201;-77
2021/06/15 00:30:03;;;;;;;2.97;2.08;;;;;24.20;101891.00;;;;5110013;28;20220;-78
2021/06/15 00:32:31;;;;;;;3.35;1.73;;;;;24.10;101892.00;;;;5110476;28;20225;-77
2021/06/15 00:34:59;;;;;;;4.20;2.33;;;;;24.10;101892.00;;;;5109786;28;20237;-77
2021/06/15 00:37:26;;;;;;;4.30;1.88;;;;;24.10;101883.00;;;;5109692;28;20204;-78
2021/06/15 00:39:53;;;;;;;2.22;1.98;;;;;24.10;101878.00;;;;5109974;28;20205;-78
2021/06/15 00:42:22;;;;;;;3.65;1.83;;;;;24.10;101890.00;;;;5109170;28;20202;-77
2021/06/15 00:44:50;;;;;;;3.95;1.85;;;;;24.10;101889.00;;;;5110442;28;20202;-77
2021/06/15 00:47:18;;;;;;;3.53;1.30;;;;;24.10;101886.00;;;;5109466;28;20267;-77
2021/06/15 00:49:46;;;;;;;1.80;1.55;;;;;24.10;101889.00;;;;5109811;28;20209;-78
2021/06/15 00:52:14;;;;;;;2.70;1.27;;;;;24.10;101894.00;;;;5109767;28;20232;-78
2021/06/15 00:54:43;;;;;;;3.15;1.92;;;;;24.00;101902.00;;;;5109513;28;20190;-78
2021/06/15 00:57:16;;;;;;;2.55;1.90;;;;;24.00;101899.00;;;;5109548;28;20190;-77
2021/06/15 00:59:43;;;;;;;2.15;1.90;;;;;24.00;101905.00;;;;5109387;28;20202;-77
2021/06/15 01:02:11;;;;;;;3.90;1.70;;;;;24.00;101911.00;;;;5109423;28;20201;-77
2021/06/15 01:04:38;;;;;;;3.22;1.75;;;;;24.00;101910.00;;;;5109162;28;20197;-77
2021/06/15 01:07:13;;;;;;;2.47;1.80;;;;;23.90;101912.00;;;;5101687;28;20207;-78
2021/06/15 01:09:47;;;;;;;2.83;1.52;;;;;23.90;101909.00;;;;5098682;28;20204;-77
2021/06/15 01:12:27;;;;;;;3.50;1.85;;;;;23.80;101916.00;;;;5102436;28;20212;-77
2021/06/15 01:15:05;;;;;;;2.53;1.33;;;;;23.80;101927.00;;;;5109204;28;20205;-77
2021/06/15 01:17:37;;;;;;;2.63;1.92;;;;;23.80;101928.00;;;;5109082;28;20200;-78
2021/06/15 01:20:18;;;;;;;5.20;1.70;;;;;23.80;101919.00;;;;5109933;28;20201;-78
2021/06/15 01:23:25;;;;;;;2.20;1.65;;;;;23.70;101913.00;;;;5109262;28;20201;-78
2021/06/15 01:26:05;;;;;;;3.67;1.75;;;;;23.80;101916.00;;;;5108798;28;20216;-77
2021/06/15 01:28:39;;;;;;;2.25;1.80;;;;;23.80;101928.00;;;;5107446;28;20651;-77
2021/06/15 01:31:13;;;;;;;2.70;1.48;;;;;23.80;101930.00;;;;5109034;28;20644;-77
2021/06/15 01:33:44;;;;;;;6.07;1.90;;;;;23.80;101929.00;;;;5107968;28;20237;-78
2021/06/15 01:36:14;;;;;;;2.95;1.52;;;;;23.80;101931.00;;;;5108957;28;20320;-78
2021/06/15 01:38:48;;;;;;;2.38;1.60;;;;;23.80;101929.00;;;;5108739;28;20287;-78
2021/06/15 01:41:19;;;;;;;3.33;1.33;;;;;23.80;101923.00;;;;5109065;28;20202;-78
2021/06/15 01:43:52;;;;;;;1.75;1.40;;;;;23.80;101926.00;;;;5109190;28;20240;-78
2021/06/15 01:46:24;;;;;;;4.22;1.55;;;;;23.80;101919.00;;;;5108447;28;20271;-77
2021/06/15 01:48:58;;;;;;;1.70;1.60;;;;;23.80;101919.00;;;;5109418;28;20194;-78
2021/06/15 01:51:27;;;;;;;3.17;1.42;;;;;23.80;101920.00;;;;5108818;28;20255;-78
2021/06/15 01:53:59;;;;;;;5.63;1.88;;;;;23.80;101922.00;;;;5108933;28;20236;-78
2021/06/15 01:56:29;;;;;;;2.45;1.85;;;;;23.90;101932.00;;;;5108654;28;20660;-78
2021/06/15 01:59:00;;;;;;;4.18;1.63;;;;;23.80;101938.00;;;;5108198;28;20209;-78
2021/06/15 02:01:29;;;;;;;4.05;1.80;;;;;23.90;101938.00;;;;5108271;28;20664;-77
2021/06/15 02:03:57;;;;;;;2.20;1.50;;;;;23.90;101938.00;;;;5108919;28;20676;-78
2021/06/15 02:06:25;;;;;;;2.33;1.70;;;;;23.90;101941.00;;;;5107793;28;20201;-77
2021/06/15 02:08:54;;;;;;;2.67;1.90;;;;;23.90;101945.00;;;;5107937;28;20259;-78
2021/06/15 02:11:23;;;;;;;2.42;2.00;;;;;23.90;101950.00;;;;5108495;28;20194;-77
2021/06/15 02:13:51;;;;;;;3.03;1.42;;;;;23.90;101943.00;;;;5107895;28;20233;-77
2021/06/15 02:16:20;;;;;;;3.60;1.80;;;;;23.80;101940.00;;;;5108444;28;20201;-77
2021/06/15 02:18:52;;;;;;;2.90;1.50;;;;;23.80;101951.00;;;;5108823;28;20208;-78
2021/06/15 02:21:21;;;;;;;2.10;1.63;;;;;23.80;101950.00;;;;5106638;28;20194;-77
2021/06/15 02:23:51;;;;;;;2.28;1.85;;;;;23.90;101950.00;;;;5109074;28;20205;-78
2021/06/15 02:26:20;;;;;;;4.57;2.22;;;;;23.90;101949.00;;;;5106721;28;20221;-77
2021/06/15 02:28:48;;;;;;;2.33;1.70;;;;;23.90;101950.00;;;;5100730;28;20194;-78
2021/06/15 02:31:18;;;;;;;1.90;1.50;;;;;23.80;101953.00;;;;5088662;28;20206;-77
2021/06/15 02:33:52;;;;;;;2.08;1.45;;;;;23.80;101955.00;;;;5097361;28;20618;-77
2021/06/15 02:36:23;;;;;;;1.65;1.33;;;;;23.80;101955.00;;;;5107766;28;20600;-77
2021/06/15 02:38:55;;;;;;;2.35;1.60;;;;;23.80;101954.00;;;;5108449;28;20193;-77
2021/06/15 02:41:24;;;;;;;6.32;1.88;;;;;23.80;101954.00;;;;5109454;28;20197;-77
2021/06/15 02:43:57;;;;;;;2.10;1.75;;;;;23.80;101948.00;;;;5111444;28;20574;-77
2021/06/15 02:46:26;;;;;;;2.45;1.50;;;;;23.80;101942.00;;;;5111359;28;20309;-78
2021/06/15 02:48:58;;;;;;;4.32;2.00;;;;;23.80;101941.00;;;;5112441;28;20205;-77
2021/06/15 02:51:30;;;;;;;1.77;1.42;;;;;23.80;101949.00;;;;5111129;28;20216;-76
2021/06/15 02:54:06;;;;;;;2.42;1.63;;;;;23.80;101946.00;;;;5112168;28;20694;-77
2021/06/15 02:56:39;;;;;;;2.83;1.70;;;;;23.80;101943.00;;;;5111508;28;20197;-77
2021/06/15 02:59:06;;;;;;;3.75;2.00;;;;;23.80;101943.00;;;;5111125;28;20197;-77
2021/06/15 03:01:33;;;;;;;2.40;1.70;;;;;23.80;101930.00;;;;5111482;28;20223;-78
2021/06/15 03:04:03;;;;;;;2.03;1.80;;;;;23.80;101938.00;;;;5111984;28;20213;-77
2021/06/15 03:06:30;;;;;;;3.83;1.52;;;;;23.80;101950.00;;;;5110852;28;20236;-77
2021/06/15 03:08:58;;;;;;;2.17;1.85;;;;;23.80;101947.00;;;;5092003;28;20201;-77
2021/06/15 03:11:27;;;;;;;4.57;1.52;;;;;23.80;101946.00;;;;5097620;28;20201;-78
2021/06/15 03:13:58;;;;;;;3.67;1.58;;;;;23.80;101950.00;;;;5111381;28;20253;-78
2021/06/15 03:16:30;;;;;;;4.80;1.67;;;;;23.80;101949.00;;;;5111733;28;20205;-77
2021/06/15 03:19:05;;;;;;;3.40;1.60;;;;;23.90;101945.00;;;;5111269;28;20566;-77
2021/06/15 03:21:35;;;;;;;3.20;1.75;;;;;23.90;101956.00;;;;5106453;27;20201;-78
2021/06/15 03:24:04;;;;;;;1.33;1.20;;;;;23.90;101949.00;;;;5102765;28;20640;-78
2021/06/15 03:26:38;;;;;;;3.15;1.80;;;;;23.80;101949.00;;;;5110401;28;20206;-76
2021/06/15 03:29:08;;;;;;;1.90;1.23;;;;;23.90;101960.00;;;;5111478;28;20233;-77
2021/06/15 03:31:41;;;;;;;3.55;1.65;;;;;23.90;101968.00;;;;5111526;28;20198;-77
2021/06/15 03:34:12;;;;;;;1.45;1.10;;;;;23.90;101973.00;;;;5110831;28;20236;-77
2021/06/15 03:36:41;;;;;;;2.60;1.90;;;;;23.90;101972.00;;;;5110176;28;20241;-78
2021/06/15 03:39:09;;;;;;;3.13;1.10;;;;;23.90;101971.00;;;;5111618;28;20248;-78
2021/06/15 03:41:37;;;;;;;2.05;1.13;;;;;23.90;101985.00;;;;5110592;28;20209;-78
2021/06/15 03:44:07;;;;;;;2.53;1.25;;;;;23.80;101981.00;;;;5111207;28;20217;-78
2021/06/15 03:46:36;;;;;;;2.92;0.88;;;;;23.80;101978.00;;;;5110875;28;20221;-77
2021/06/15 03:49:06;;;;;;;2.08;1.27;;;;;23.80;101982.00;;;;5110809;28;20209;-77
2021/06/15 03:51:39;;;;;;;2.05;1.27;;;;;23.80;101986.00;;;;5110181;28;20209;-77
2021/06/15 03:54:08;;;;;;;2.35;1.20;;;;;23.80;101976.00;;;;5111161;28;20224;-77
2021/06/15 03:56:37;;;;;;;2.00;1.10;;;;;23.80;101976.00;;;;5110189;28;20243;-78
2021/06/15 03:59:07;;;;;;;1.63;1.00;;;;;23.80;101970.00;;;;5110163;28;20208;-77
2021/06/15 04:01:35;;;;;;;2.17;0.90;;;;;23.80;101976.00;;;;5110818;28;20207;-77
2021/06/15 04:04:06;;;;;;;1.05;0.70;;;;;23.70;101973.00;;;;5110945;28;20197;-78
2021/06/15 04:06:36;;;;;;;2.30;0.80;;;;;23.70;101967.00;;;;5109593;28;20189;-78
2021/06/15 04:09:06;;;;;;;5.25;0.60;;;;;23.70;101976.00;;;;5110502;28;20194;-78
2021/06/15 04:11:36;;;;;;;0.95;0.70;;;;;23.70;101975.00;;;;5109362;28;20197;-77
2021/06/15 04:14:05;;;;;;;1.10;0.52;;;;;23.60;101987.00;;;;5110963;28;20217;-78
2021/06/15 04:16:32;;;;;;;1.83;0.50;;;;;23.60;101987.00;;;;5108666;28;20201;-78
2021/06/15 04:19:01;;;;;;;3.45;1.10;;;;;23.60;101988.00;;;;5110157;28;20213;-78
2021/06/15 04:21:34;;;;;;;3.15;0.70;;;;;23.60;101983.00;;;;5105916;28;20198;-78
2021/06/15 04:24:08;;;;;;;0.95;0.38;;;;;23.60;101991.00;;;;5110082;28;20194;-77
2021/06/15 04:26:35;;;;;;;1.33;0.63;;;;;23.60;101997.00;;;;5109206;28;20189;-77
2021/06/15 04:29:05;;;;;;;2.10;0.45;;;;;23.50;102001.00;;;;5106792;28;20585;-77
2021/06/15 04:31:35;;;;;;;1.27;0.70;;;;;23.50;102002.00;;;;5109472;28;20205;-78
2021/06/15 04:34:03;;;;;;;0.85;0.50;;;;;23.50;102001.00;;;;5107928;28;20225;-77
2021/06/15 04:36:33;;;;;;;1.98;0.45;;;;;23.50;102001.00;;;;5109053;28;20197;-78
2021/06/15 04:39:04;;;;;;;2.33;0.90;;;;;23.40;102006.00;;;;5109104;28;20675;-78
2021/06/15 04:41:36;;;;;;;0.57;0.40;;;;;23.40;102014.00;;;;5109321;28;20881;-78
2021/06/15 04:44:05;;;;;;;1.75;0.50;;;;;23.40;102018.00;;;;5108861;28;20206;-79
2021/06/15 04:46:40;;;;;;;2.97;0.80;;;;;23.40;102023.00;;;;5108769;28;20217;-79
2021/06/15 04:49:12;;;;;;;1.23;0.70;;;;;23.40;102032.00;;;;5110041;28;20561;-79
2021/06/15 04:51:40;;;;;;;1.40;0.63;;;;;23.30;102026.00;;;;5109441;28;20674;-79
2021/06/15 04:54:12;;;;;;;1.27;0.63;;;;;23.30;102029.00;;;;5109727;28;20231;-78
2021/06/15 04:56:42;;;;;;;3.70;0.60;;;;;23.30;102023.00;;;;5108805;28;20209;-79
2021/06/15 04:59:11;;;;;;;2.35;0.40;;;;;23.30;102020.00;;;;5109735;28;20619;-79
2021/06/15 05:01:42;;;;;;;2.70;0.30;;;;;23.30;102023.00;;;;5109689;28;20205;-79
2021/06/15 05:04:10;;;;;;;2.25;0.70;;;;;23.30;102019.00;;;;5108977;28;20197;-79
2021/06/15 05:06:41;;;;;;;3.53;0.82;;;;;23.30;102024.00;;;;5105611;28;20742;-78
2021/06/15 05:09:11;;;;;;;1.65;0.45;;;;;23.30;102021.00;;;;5109214;28;20201;-79
2021/06/15 05:11:39;;;;;;;0.50;0.20;;;;;23.30;102028.00;;;;5108796;28;20201;-79
2021/06/15 05:14:09;;;;;;;0.82;0.32;;;;;23.30;102031.00;;;;5106571;28;20224;-78
2021/06/15 05:16:38;;;;;;;1.38;0.40;;;;;23.30;102031.00;;;;5087842;28;20205;-79
2021/06/15 05:19:05;;;;;;;1.80;0.93;;;;;23.30;102025.00;;;;5100427;28;20201;-78
2021/06/15 05:21:41;;;;;;;3.47;0.40;;;;;23.30;102028.00;;;;5100389;28;20225;-78
2021/06/15 05:24:12;;;;;;;2.63;0.20;;;;;23.30;102030.00;;;;5101322;28;20776;-78
2021/06/15 05:26:39;;;;;;;3.67;0.40;;;;;23.30;102032.00;;;;5106967;28;20862;-78
2021/06/15 05:29:07;;;;;;;1.00;0.40;;;;;23.30;102035.00;;;;5107732;28;20205;-78
2021/06/15 05:31:34;;;;;;;0.68;0.25;;;;;23.30;102030.00;;;;5106583;28;20208;-79
2021/06/15 05:34:01;;;;;;;3.50;0.40;;;;;23.30;102035.00;;;;5107971;28;20221;-78
2021/06/15 05:36:28;;;;;;;3.22;0.40;;;;;23.30;102038.00;;;;5108237;28;20190;-78
2021/06/15 05:38:55;;;;;;;2.55;0.40;;;;;23.30;102032.00;;;;5108657;28;20205;-77
2021/06/15 05:41:24;;;;;;;1.83;0.20;;;;;23.20;102037.00;;;;5108033;28;20709;-78
2021/06/15 05:43:51;;;;;;;2.85;0.68;;;;;23.20;102039.00;;;;5108705;28;20682;-78
2021/06/15 05:46:18;;;;;;;3.13;0.35;;;;;23.20;102040.00;;;;5108148;28;20213;-78
2021/06/15 05:48:46;;;;;;;4.38;0.50;;;;;23.20;102049.00;;;;5109273;28;20201;-77
2021/06/15 05:51:13;;;;;;;3.85;0.90;;;;;23.20;102040.00;;;;5109137;28;20197;-77
2021/06/15 05:53:40;;;;;;;2.78;0.40;;;;;23.20;102044.00;;;;5108497;28;20217;-78
2021/06/15 05:56:07;;;;;;;0.80;0.40;;;;;23.20;102042.00;;;;5108794;28;20212;-77
2021/06/15 05:58:36;;;;;;;1.33;0.30;;;;;23.20;102044.00;;;;5107050;28;20197;-77
2021/06/15 06:01:06;;;;;;;2.28;0.77;;;;;23.20;102052.00;;;;5107984;28;20198;-77
2021/06/15 06:03:35;;;;;;;0.57;0.20;;;;;23.20;102046.00;;;;5108213;28;20535;-79
2021/06/15 06:08:48;;;;;;;1.85;0.55;;;;;23.20;102050.00;;;;5108944;28;20197;-79
2021/06/15 06:11:15;;;;;;;3.08;0.40;;;;;23.20;102052.00;;;;5108395;28;20671;-79
2021/06/15 06:13:45;;;;;;;2.17;0.32;;;;;23.20;102066.00;;;;5108443;28;20197;-80
2021/06/15 06:16:12;;;;;;;0.93;0.35;;;;;23.20;102068.00;;;;5110010;28;20197;-79
2021/06/15 06:18:40;;;;;;;1.27;0.32;;;;;23.20;102065.00;;;;5111863;28;20206;-79
2021/06/15 06:21:10;;;;;;;1.17;0.52;;;;;23.20;102064.00;;;;5110906;28;20194;-79
2021/06/15 06:23:38;;;;;;;1.25;0.20;;;;;23.20;102070.00;;;;5100367;28;20834;-79
2021/06/15 06:26:05;;;;;;;2.03;0.40;;;;;23.30;102073.00;;;;5112365;28;20698;-79
2021/06/15 06:28:33;;;;;;;3.42;0.50;;;;;23.30;102084.00;;;;5111976;28;20197;-79
2021/06/15 06:31:01;;;;;;;2.42;0.45;;;;;23.30;102075.00;;;;5112114;28;20197;-79
2021/06/15 06:33:28;;;;;;;2.60;0.38;;;;;23.30;102077.00;;;;5112175;28;20205;-79
2021/06/15 06:35:56;;;;;;;3.00;0.40;;;;;23.30;102077.00;;;;5111509;28;20240;-79
2021/06/15 06:38:23;;;;;;;7.43;0.75;;;;;23.30;102084.00;;;;5111679;28;20608;-79
2021/06/15 06:40:50;;;;;;;1.95;0.40;;;;;23.30;102094.00;;;;5112248;28;20568;-79
2021/06/15 06:43:18;;;;;;;1.45;0.60;;;;;23.30;102097.00;;;;5111917;28;20202;-79
2021/06/15 06:45:45;;;;;;;1.08;0.40;;;;;23.30;102102.00;;;;5111961;28;20194;-78
2021/06/15 06:48:14;;;;;;;1.60;0.30;;;;;23.20;102104.00;;;;5111724;28;20260;-79
2021/06/15 06:50:41;;;;;;;3.03;0.82;;;;;23.30;102102.00;;;;5111465;28;20220;-78
2021/06/15 06:53:08;;;;;;;2.78;0.60;;;;;23.30;102114.00;;;;5110803;28;20197;-79
2021/06/15 06:55:35;;;;;;;2.30;0.38;;;;;23.30;102118.00;;;;5110185;28;20213;-79
2021/06/15 06:58:03;;;;;;;1.50;0.30;;;;;23.30;102107.00;;;;5110523;27;20527;-80
2021/06/15 07:00:31;;;;;;;2.03;0.52;;;;;23.30;102100.00;;;;5110386;27;20393;-79
2021/06/15 07:02:58;;;;;;;2.45;1.00;;;;;23.30;102096.00;;;;5106871;28;20213;-79
2021/06/15 07:05:26;;;;;;;1.58;0.40;;;;;23.30;102107.00;;;;5101951;28;20190;-79
2021/06/15 07:07:54;;;;;;;0.65;0.20;;;;;23.40;102108.00;;;;5110868;28;20197;-79
2021/06/15 07:10:21;;;;;;;1.75;0.60;;;;;23.40;102105.00;;;;5111434;28;20209;-78
2021/06/15 07:12:49;;;;;;;3.38;0.70;;;;;23.50;102096.00;;;;5111592;28;20213;-79
2021/06/15 07:15:17;;;;;;;3.10;0.80;;;;;23.50;102092.00;;;;5111168;28;20229;-78
2021/06/15 07:17:44;;;;;;;1.42;0.40;;;;;23.60;102099.00;;;;5109633;28;20217;-78
2021/06/15 07:20:12;;;;;;;1.58;0.77;;;;;23.70;102096.00;;;;5111820;28;20197;-80
2021/06/15 07:22:41;;;;;;;2.10;0.57;;;;;23.80;102096.00;;;;5109305;28;20208;-79
2021/06/15 07:25:10;;;;;;;4.80;0.63;;;;;23.90;102088.00;;;;5111611;28;20193;-80
2021/06/15 07:27:37;;;;;;;1.73;0.40;;;;;24.10;102095.00;;;;5109450;28;20213;-79
2021/06/15 07:30:06;;;;;;;2.50;0.30;;;;;24.20;102102.00;;;;5111050;28;20194;-78
2021/06/15 07:32:33;;;;;;;5.53;0.45;;;;;24.20;102110.00;;;;5110346;28;20228;-79
2021/06/15 07:35:01;;;;;;;0.95;0.38;;;;;24.30;102105.00;;;;5109950;28;20221;-79
2021/06/15 07:37:28;;;;;;;0.90;0.35;;;;;24.40;102102.00;;;;5109225;28;20197;-79
2021/06/15 07:39:57;;;;;;;4.70;1.02;;;;;24.50;102097.00;;;;5109270;28;20557;-79
2021/06/15 07:42:28;;;;;;;1.40;0.32;;;;;24.60;102105.00;;;;5110149;28;20201;-78
2021/06/15 07:44:55;;;;;;;3.03;0.98;;;;;24.70;102106.00;;;;5108784;28;20656;-79
2021/06/15 07:47:23;;;;;;;3.05;0.63;;;;;24.70;102105.00;;;;5109596;28;20213;-80
2021/06/15 07:49:52;;;;;;;0.55;0.20;;;;;24.80;102098.00;;;;5109276;28;20204;-79
2021/06/15 07:52:27;;;;;;;1.13;0.22;;;;;24.90;102096.00;;;;5103537;27;20563;-79
2021/06/15 07:54:55;;;;;;;1.55;0.43;;;;;25.10;102094.00;;;;5103593;28;20270;-80
2021/06/15 07:57:23;;;;;;;3.22;0.60;;;;;25.20;102103.00;;;;5103567;28;20641;-81
2021/06/15 07:59:50;;;;;;;0.93;0.40;;;;;25.40;102107.00;;;;5108441;28;20659;-80
2021/06/15 08:02:17;;;;;;;0.73;0.30;;;;;25.50;102109.00;;;;5094469;28;20201;-80
2021/06/15 08:04:44;;;;;;;3.47;0.55;;;;;25.60;102115.00;;;;5099958;28;20194;-79
2021/06/15 08:07:12;;;;;;;0.75;0.30;;;;;25.70;102105.00;;;;5109349;28;20285;-81
2021/06/15 08:09:39;;;;;;;1.75;0.50;;;;;25.80;102111.00;;;;5108480;28;20197;-80
2021/06/15 08:12:08;;;;;;;3.00;0.40;;;;;25.90;102117.00;;;;5109292;28;20189;-80
2021/06/15 08:14:36;;;;;;;3.10;0.22;;;;;26.00;102110.00;;;;5108962;28;20252;-79
2021/06/15 08:17:03;;;;;;;1.98;0.50;;;;;26.10;102104.00;;;;5109533;28;20210;-79
2021/06/15 08:19:30;;;;;;;1.00;0.32;;;;;26.20;102104.00;;;;5108284;28;20671;-80
2021/06/15 08:21:58;;;;;;;1.63;0.30;;;;;26.30;102113.00;;;;5101774;28;20237;-80
2021/06/15 08:24:25;;;;;;;1.50;0.32;;;;;26.40;102107.00;;;;5089123;28;20571;-80
2021/06/15 08:26:52;;;;;;;2.33;0.20;;;;;26.50;102114.00;;;;5108957;28;20208;-79
2021/06/15 08:29:21;;;;;;;2.17;0.28;;;;;26.60;102111.00;;;;5108779;28;20198;-81
2021/06/15 08:31:48;;;;;;;3.33;0.40;;;;;26.70;102110.00;;;;5108626;28;20684;-80
2021/06/15 08:34:16;;;;;;;1.90;0.50;;;;;26.90;102110.00;;;;5108116;28;20226;-81
2021/06/15 08:36:43;;;;;;;0.95;0.40;;;;;27.00;102109.00;;;;5108550;28;20213;-80
2021/06/15 08:39:11;;;;;;;2.47;0.30;;;;;27.10;102104.00;;;;5106922;28;20202;-80
2021/06/15 08:41:38;;;;;;;1.52;0.40;;;;;27.20;102091.00;;;;5108779;28;20216;-79
2021/06/15 08:44:07;;;;;;;2.28;0.43;;;;;27.20;102083.00;;;;5107870;28;20679;-80
2021/06/15 08:46:36;;;;;;;3.53;0.20;;;;;27.30;102077.00;;;;5108227;28;20222;-80
2021/06/15 08:49:04;;;;;;;1.23;0.45;;;;;27.40;102081.00;;;;5109664;28;20666;-78
2021/06/15 08:51:32;;;;;;;3.40;0.40;;;;;27.50;102085.00;;;;5107636;28;20252;-79
2021/06/15 08:54:03;;;;;;;2.22;0.55;;;;;27.60;102091.00;;;;5108380;28;20223;-79
2021/06/15 08:56:33;;;;;;;0.60;0.30;;;;;27.70;102085.00;;;;5099158;28;20253;-78
2021/06/15 08:59:18;;;;;;;1.23;0.38;;;;;27.70;102090.00;;;;5109382;28;20209;-79
2021/06/15 09:01:47;;;;;;;2.92;0.47;;;;;27.80;102089.00;;;;5089013;28;20206;-78
2021/06/15 09:04:14;;;;;;;0.93;0.28;;;;;27.90;102085.00;;;;5105136;28;20224;-79
2021/06/15 09:06:42;;;;;;;1.27;0.38;;;;;28.00;102086.00;;;;5108504;28;20198;-78
2021/06/15 09:09:09;;;;;;;4.15;0.68;;;;;28.10;102092.00;;;;5108373;28;20204;-79
2021/06/15 09:11:55;;;;;;;0.90;0.30;;;;;28.10;102086.00;;;;5101520;28;20193;-79
2021/06/15 09:14:41;;;;;;;3.83;0.60;;;;;28.20;102083.00;;;;5109111;28;20198;-81
2021/06/15 09:17:13;;;;;;;2.17;0.45;;;;;28.50;102082.00;;;;5107484;28;20197;-80
2021/06/15 09:19:42;;;;;;;4.05;0.40;;;;;28.60;102077.00;;;;5108103;28;20198;-80
2021/06/15 09:22:24;;;;;;;0.77;0.40;;;;;28.70;102074.00;;;;5104831;28;20198;-80
2021/06/15 09:24:51;;;;;;;1.90;0.30;;;;;28.90;102088.00;;;;5108868;28;20197;-77
2021/06/15 09:27:20;;;;;;;4.53;0.60;;;;;29.00;102086.00;;;;5108899;28;20197;-80
2021/06/15 09:29:49;;;;;;;2.45;0.73;;;;;29.00;102083.00;;;;5108532;28;20201;-79
2021/06/15 09:32:19;;;;;;;2.92;0.80;;;;;29.10;102086.00;;;;5107949;28;20205;-82
2021/06/15 09:34:58;;;;;;;2.65;0.57;;;;;29.20;102086.00;;;;5107982;28;20225;-81
2021/06/15 09:37:38;;;;;;;2.15;0.47;;;;;29.30;102081.00;;;;5103572;28;20198;-78
2021/06/15 09:40:12;;;;;;;2.22;0.75;;;;;29.50;102084.00;;;;5109254;28;20206;-79
2021/06/15 09:42:51;;;;;;;1.95;0.40;;;;;29.50;102090.00;;;;5108963;28;20575;-80
2021/06/15 09:45:23;;;;;;;1.92;0.55;;;;;29.60;102092.00;;;;5106457;28;20185;-78
2021/06/15 09:47:52;;;;;;;1.30;0.45;;;;;29.70;102090.00;;;;5107995;28;20205;-80
2021/06/15 09:50:22;;;;;;;1.23;0.40;;;;;29.80;102092.00;;;;5110172;28;20205;-80
2021/06/15 09:52:49;;;;;;;2.78;0.40;;;;;29.90;102088.00;;;;5112182;28;20204;-79
2021/06/15 09:55:21;;;;;;;2.03;0.50;;;;;29.90;102099.00;;;;5112755;28;20228;-78
2021/06/15 09:57:51;;;;;;;3.97;0.50;;;;;30.00;102091.00;;;;5113241;28;20297;-80
2021/06/15 10:00:21;;;;;;;2.83;0.60;;;;;30.00;102085.00;;;;5112121;28;20654;-78
2021/06/15 10:02:52;;;;;;;2.75;0.73;;;;;30.10;102084.00;;;;5111319;28;20207;-78
2021/06/15 10:05:26;;;;;;;4.75;0.90;;;;;30.00;102087.00;;;;5104557;28;20198;-79
2021/06/15 10:07:54;;;;;;;1.63;0.60;;;;;30.10;102091.00;;;;5112985;28;20208;-79
2021/06/15 10:10:23;;;;;;;3.85;0.68;;;;;30.10;102085.00;;;;5112735;28;20205;-79
2021/06/15 10:12:52;;;;;;;3.80;0.90;;;;;30.10;102077.00;;;;5107835;28;20659;-80
2021/06/15 10:15:20;;;;;;;2.28;0.70;;;;;30.20;102070.00;;;;5112649;28;20225;-80
2021/06/15 10:17:47;;;;;;;3.13;1.30;;;;;30.20;102064.00;;;;5112244;28;20197;-79
2021/06/15 10:20:18;;;;;;;1.83;0.75;;;;;30.20;102066.00;;;;5112936;28;20205;-78
2021/06/15 10:22:47;;;;;;;4.38;0.88;;;;;30.20;102080.00;;;;5111913;28;20209;-77
2021/06/15 10:25:17;;;;;;;5.75;0.88;;;;;30.30;102072.00;;;;5108407;28;20323;-79
2021/06/15 10:27:44;;;;;;;3.22;0.80;;;;;30.40;102078.00;;;;5110790;28;20198;-79
2021/06/15 10:30:15;;;;;;;2.03;0.93;;;;;30.40;102081.00;;;;5111404;28;20198;-80
2021/06/15 10:32:54;;;;;;;3.72;1.02;;;;;30.40;102072.00;;;;5110336;28;20197;-80
2021/06/15 10:35:41;;;;;;;1.48;0.50;;;;;30.40;102072.00;;;;5110643;28;20538;-78
2021/06/15 10:38:09;;;;;;;1.75;0.65;;;;;30.50;102069.00;;;;5110180;28;20201;-78
2021/06/15 10:40:55;;;;;;;1.27;0.70;;;;;30.50;102067.00;;;;5110787;28;20655;-82
2021/06/15 10:43:28;;;;;;;3.85;1.15;;;;;30.60;102070.00;;;;5111971;28;20186;-82
2021/06/15 10:46:00;;;;;;;5.97;0.77;;;;;30.60;102070.00;;;;5111999;28;20197;-82
2021/06/15 10:48:30;;;;;;;4.40;1.00;;;;;30.60;102071.00;;;;5111647;28;20224;-80
2021/06/15 10:51:01;;;;;;;2.40;0.77;;;;;30.50;102078.00;;;;5112493;28;20197;-79
2021/06/15 10:53:37;;;;;;;7.38;0.95;;;;;30.40;102080.00;;;;5111024;28;20201;-79
2021/06/15 10:56:06;;;;;;;4.40;1.00;;;;;30.40;102075.00;;;;5111802;28;20674;-80
2021/06/15 10:58:58;;;;;;;1.60;0.65;;;;;30.20;102081.00;;;;5111787;28;20212;-80
2021/06/15 11:01:26;;;;;;;3.10;0.88;;;;;30.30;102077.00;;;;5110579;28;20202;-80
2021/06/15 11:03:55;;;;;;;3.13;0.80;;;;;30.40;102072.00;;;;5109965;28;20792;-80
2021/06/15 11:06:42;;;;;;;1.50;0.57;;;;;30.30;102066.00;;;;5111513;28;20204;-79
2021/06/15 11:09:25;;;;;;;3.83;0.93;;;;;30.40;102069.00;;;;5110080;28;20591;-80
2021/06/15 11:12:23;;;;;;;7.18;0.68;;;;;30.30;102063.00;;;;5111225;27;20274;-79
2021/06/15 11:15:14;;;;;;;4.53;0.68;;;;;30.30;102063.00;;;;5102173;28;20213;-78
2021/06/15 11:17:49;;;;;;;1.90;0.47;;;;;30.40;102058.00;;;;5107505;28;20194;-78
2021/06/15 11:20:30;;;;;;;2.35;0.80;;;;;30.40;102059.00;;;;5105144;28;20189;-78
2021/06/15 11:23:24;;;;;;;3.88;0.80;;;;;30.40;102055.00;;;;5104716;28;20186;-78
2021/06/15 11:25:54;;;;;;;1.85;0.77;;;;;30.40;102058.00;;;;5098609;28;20198;-78
2021/06/15 11:28:39;;;;;;;6.88;1.05;;;;;30.30;102059.00;;;;5108990;28;20202;-78
2021/06/15 11:31:32;;;;;;;1.38;0.60;;;;;30.20;102053.00;;;;5109312;28;20220;-79
2021/06/15 11:34:27;;;;;;;1.77;0.43;;;;;30.20;102045.00;;;;5108677;28;21187;-78
2021/06/15 11:36:58;;;;;;;1.90;0.52;;;;;30.30;102043.00;;;;5098804;28;20274;-79
2021/06/15 11:39:37;;;;;;;1.65;0.52;;;;;30.20;102038.00;;;;5092881;28;20232;-78
2021/06/15 11:42:23;;;;;;;2.50;0.77;;;;;30.20;102044.00;;;;5111158;28;20287;-77
2021/06/15 11:44:55;;;;;;;5.10;0.60;;;;;30.30;102042.00;;;;5110616;28;20205;-78
2021/06/15 11:47:27;;;;;;;0.50;0.30;;;;;30.30;102038.00;;;;5104993;28;20210;-77
2021/06/15 11:50:10;;;;;;;2.08;0.60;;;;;30.30;102036.00;;;;5110589;28;20280;-77
2021/06/15 11:52:39;;;;;;;2.45;0.60;;;;;30.40;102036.00;;;;5110196;28;20201;-78
2021/06/15 11:55:09;;;;;;;4.90;0.63;;;;;30.40;102045.00;;;;5109769;28;20209;-78
2021/06/15 11:57:37;;;;;;;2.40;0.95;;;;;30.40;102038.00;;;;5107312;28;20613;-77
2021/06/15 12:00:10;;;;;;;2.35;0.90;;;;;30.30;102041.00;;;;5109609;28;20255;-78
2021/06/15 12:02:38;;;;;;;1.85;1.05;;;;;30.30;102036.00;;;;5110063;28;20577;-78
2021/06/15 12:05:09;;;;;;;1.90;0.75;;;;;30.30;102041.00;;;;5109990;28;20674;-79
2021/06/15 12:07:36;;;;;;;2.05;0.65;;;;;30.40;102046.00;;;;5109845;28;20284;-78
2021/06/15 12:10:11;;;;;;;1.67;0.60;;;;;30.20;102045.00;;;;5109725;28;20193;-79
2021/06/15 12:13:06;;;;;;;0.95;0.55;;;;;30.10;102048.00;;;;5109289;28;20212;-79
2021/06/15 12:15:55;;;;;;;1.63;0.60;;;;;30.10;102055.00;;;;5109277;28;21298;-78
2021/06/15 12:18:34;;;;;;;2.30;1.05;;;;;30.10;102042.00;;;;5108842;28;20197;-79
2021/06/15 12:21:04;;;;;;;2.65;0.82;;;;;30.20;102041.00;;;;5110275;28;20201;-78
2021/06/15 12:23:36;;;;;;;2.30;0.57;;;;;30.20;102044.00;;;;5102469;28;20192;-77
2021/06/15 12:26:09;;;;;;;4.20;0.90;;;;;30.20;102040.00;;;;5109198;28;20205;-77
2021/06/15 12:28:38;;;;;;;3.30;0.75;;;;;30.20;102030.00;;;;5107289;28;20638;-79